sensor_id;sensor_type;location;lat;lon;timestamp;pressure;altitude;pressure_sealevel;temperature;humidity
34931;BME280;21134;49.646;8.560;2023-05-08T00:01:34;100753.88;;;15.00;100.00
34931;BME280;21134;49.646;8.560;2023-05-08T00:04:01;100753.00;;;15.00;100.00
34931;BME280;21134;49.646;8.560;2023-05-08T00:06:27;100759.81;;;15.04;100.00
34931;BME280;21134;49.646;8.560;2023-05-08T00:08:55;100763.25;;;15.04;100.00
34931;BME280;21134;49.646;8.560;2023-05-08T00:11:22;100756.34;;;15.05;100.00
34931;BME280;21134;49.646;8.560;2023-05-08T00:13:48;100759.81;;;15.04;100.00
34931;BME280;21134;49.646;8.560;2023-05-08T00:16:15;100761.53;;;15.03;100.00
34931;BME280;21134;49.646;8.560;2023-05-08T00:18:41;100754.72;;;15.01;100.00
34931;BME280;21134;49.646;8.560;2023-05-08T00:21:08;100760.72;;;15.01;100.00
34931;BME280;21134;49.646;8.560;2023-05-08T00:23:34;100759.88;;;14.99;100.00
34931;BME280;21134;49.646;8.560;2023-05-08T00:26:02;100765.91;;;15.00;100.00
34931;BME280;21134;49.646;8.560;2023-05-08T00:28:28;100759.06;;;14.97;100.00
34931;BME280;21134;49.646;8.560;2023-05-08T00:30:58;100762.50;;;14.96;100.00
34931;BME280;21134;49.646;8.560;2023-05-08T00:33:25;100763.38;;;14.95;100.00
34931;BME280;21134;49.646;8.560;2023-05-08T00:35:57;100765.06;;;14.96;100.00
34931;BME280;21134;49.646;8.560;2023-05-08T00:38:24;100767.69;;;14.95;100.00
34931;BME280;21134;49.646;8.560;2023-05-08T00:40:50;100760.78;;;14.95;100.00
34931;BME280;21134;49.646;8.560;2023-05-08T00:43:18;100759.91;;;14.96;100.00
34931;BME280;21134;49.646;8.560;2023-05-08T00:45:49;100758.25;;;14.92;100.00
34931;BME280;21134;49.646;8.560;2023-05-08T00:48:16;100758.25;;;14.92;100.00
34931;BME280;21134;49.646;8.560;2023-05-08T00:50:43;100756.56;;;14.91;100.00
34931;BME280;21134;49.646;8.560;2023-05-08T00:53:10;100751.38;;;14.94;100.00
34931;BME280;21134;49.646;8.560;2023-05-08T00:55:37;100756.47;;;14.97;100.00
34931;BME280;21134;49.646;8.560;2023-05-08T00:58:04;100759.84;;;15.01;100.00
34931;BME280;21134;49.646;8.560;2023-05-08T01:00:33;100761.53;;;15.03;100.00
34931;BME280;21134;49.646;8.560;2023-05-08T01:02:59;100759.78;;;15.05;100.00
34931;BME280;21134;49.646;8.560;2023-05-08T01:05:26;100760.63;;;15.06;100.00
34931;BME280;21134;49.646;8.560;2023-05-08T01:07:53;100758.88;;;15.09;100.00
34931;BME280;21134;49.646;8.560;2023-05-08T01:10:20;100760.56;;;15.09;100.00
34931;BME280;21134;49.646;8.560;2023-05-08T01:12:53;100771.75;;;15.09;100.00
34931;BME280;21134;49.646;8.560;2023-05-08T01:15:28;100768.31;;;15.10;100.00
34931;BME280;21134;49.646;8.560;2023-05-08T01:18:03;100764.00;;;15.11;100.00
34931;BME280;21134;49.646;8.560;2023-05-08T01:20:40;100764.94;;;15.07;100.00
34931;BME280;21134;49.646;8.560;2023-05-08T01:23:32;100768.34;;;15.07;100.00
34931;BME280;21134;49.646;8.560;2023-05-08T01:26:35;100770.84;;;15.12;100.00
34931;BME280;21134;49.646;8.560;2023-05-08T01:32:29;100774.25;;;15.14;100.00
34931;BME280;21134;49.646;8.560;2023-05-08T01:35:10;100773.38;;;15.17;100.00
34931;BME280;21134;49.646;8.560;2023-05-08T01:37:41;100771.69;;;15.14;100.00
34931;BME280;21134;49.646;8.560;2023-05-08T01:40:17;100774.25;;;15.16;100.00
34931;BME280;21134;49.646;8.560;2023-05-08T01:42:49;100768.22;;;15.17;100.00
34931;BME280;21134;49.646;8.560;2023-05-08T01:45:21;100779.44;;;15.13;100.00
34931;BME280;21134;49.646;8.560;2023-05-08T01:47:59;100777.63;;;15.18;100.00
34931;BME280;21134;49.646;8.560;2023-05-08T01:50:32;100773.28;;;15.21;100.00
34931;BME280;21134;49.646;8.560;2023-05-08T01:53:09;100778.47;;;15.20;100.00
34931;BME280;21134;49.646;8.560;2023-05-08T01:55:39;100779.31;;;15.19;100.00
34931;BME280;21134;49.646;8.560;2023-05-08T01:58:08;100780.16;;;15.21;100.00
34931;BME280;21134;49.646;8.560;2023-05-08T02:00:37;100779.28;;;15.23;100.00
34931;BME280;21134;49.646;8.560;2023-05-08T02:03:06;100777.50;;;15.27;100.00
34931;BME280;21134;49.646;8.560;2023-05-08T02:05:36;100785.22;;;15.27;100.00
34931;BME280;21134;49.646;8.560;2023-05-08T02:08:03;100785.22;;;15.27;100.00
34931;BME280;21134;49.646;8.560;2023-05-08T02:10:32;100788.59;;;15.30;100.00
34931;BME280;21134;49.646;8.560;2023-05-08T02:13:01;100790.31;;;15.31;100.00
34931;BME280;21134;49.646;8.560;2023-05-08T02:15:29;100788.59;;;15.30;100.00
34931;BME280;21134;49.646;8.560;2023-05-08T02:18:01;100787.81;;;15.28;100.00
34931;BME280;21134;49.646;8.560;2023-05-08T02:20:30;100796.34;;;15.32;100.00
34931;BME280;21134;49.646;8.560;2023-05-08T02:22:58;100792.03;;;15.31;100.00
34931;BME280;21134;49.646;8.560;2023-05-08T02:25:26;100791.19;;;15.32;100.00
34931;BME280;21134;49.646;8.560;2023-05-08T02:27:54;100795.47;;;15.31;100.00
34931;BME280;21134;49.646;8.560;2023-05-08T02:30:23;100792.88;;;15.31;100.00
34931;BME280;21134;49.646;8.560;2023-05-08T02:32:51;100796.34;;;15.30;100.00
34931;BME280;21134;49.646;8.560;2023-05-08T02:35:19;100794.63;;;15.31;100.00
34931;BME280;21134;49.646;8.560;2023-05-08T02:37:50;100795.53;;;15.28;100.00
34931;BME280;21134;49.646;8.560;2023-05-08T02:40:18;100793.75;;;15.30;100.00
34931;BME280;21134;49.646;8.560;2023-05-08T02:42:45;100794.63;;;15.31;100.00
34931;BME280;21134;49.646;8.560;2023-05-08T02:45:12;100795.47;;;15.31;100.00
34931;BME280;21134;49.646;8.560;2023-05-08T02:47:44;100794.63;;;15.31;100.00
34931;BME280;21134;49.646;8.560;2023-05-08T02:50:16;100794.66;;;15.29;100.00
34931;BME280;21134;49.646;8.560;2023-05-08T02:52:45;100793.75;;;15.30;100.00
34931;BME280;21134;49.646;8.560;2023-05-08T02:55:25;100792.09;;;15.28;100.00
34931;BME280;21134;49.646;8.560;2023-05-08T02:58:02;100794.69;;;15.26;100.00
34931;BME280;21134;49.646;8.560;2023-05-08T03:00:31;100796.38;;;15.29;100.00
34931;BME280;21134;49.646;8.560;2023-05-08T03:03:06;100796.44;;;15.26;100.00
34931;BME280;21134;49.646;8.560;2023-05-08T03:05:36;100798.22;;;15.22;100.00
34931;BME280;21134;49.646;8.560;2023-05-08T03:08:06;100791.38;;;15.20;100.00
34931;BME280;21134;49.646;8.560;2023-05-08T03:10:35;100793.94;;;15.18;100.00
34931;BME280;21134;49.646;8.560;2023-05-08T03:13:06;100795.69;;;15.19;100.00
34931;BME280;21134;49.646;8.560;2023-05-08T03:15:36;100797.41;;;15.17;100.00
34931;BME280;21134;49.646;8.560;2023-05-08T03:18:09;100800.88;;;15.16;100.00
34931;BME280;21134;49.646;8.560;2023-05-08T03:20:38;100798.25;;;15.18;100.00
34931;BME280;21134;49.646;8.560;2023-05-08T03:23:07;100795.69;;;15.19;100.00
34931;BME280;21134;49.646;8.560;2023-05-08T03:25:36;100794.78;;;15.20;100.00
34931;BME280;21134;49.646;8.560;2023-05-08T03:28:05;100793.94;;;15.20;100.00
34931;BME280;21134;49.646;8.560;2023-05-08T03:30:35;100792.25;;;15.17;100.00
34931;BME280;21134;49.646;8.560;2023-05-08T03:33:03;100796.63;;;15.14;100.00
34931;BME280;21134;49.646;8.560;2023-05-08T03:35:34;100794.97;;;15.09;100.00
34931;BME280;21134;49.646;8.560;2023-05-08T03:38:01;100799.28;;;15.06;100.00
34931;BME280;21134;49.646;8.560;2023-05-08T03:40:28;100793.28;;;15.07;100.00
34931;BME280;21134;49.646;8.560;2023-05-08T03:42:56;100794.09;;;15.09;100.00
34931;BME280;21134;49.646;8.560;2023-05-08T03:45:23;100794.13;;;15.07;100.00
34931;BME280;21134;49.646;8.560;2023-05-08T03:47:52;100797.63;;;15.03;100.00
34931;BME280;21134;49.646;8.560;2023-05-08T03:50:19;100800.22;;;15.02;100.00
34931;BME280;21134;49.646;8.560;2023-05-08T03:52:45;100794.22;;;15.01;100.00
34931;BME280;21134;49.646;8.560;2023-05-08T03:55:12;100794.13;;;15.06;100.00
34931;BME280;21134;49.646;8.560;2023-05-08T03:57:44;100795.94;;;15.01;100.00
34931;BME280;21134;49.646;8.560;2023-05-08T04:00:21;100795.94;;;15.01;100.00
34931;BME280;21134;49.646;8.560;2023-05-08T04:02:55;100789.09;;;14.98;100.00
34931;BME280;21134;49.646;8.560;2023-05-08T04:05:26;100795.13;;;14.97;100.00
34931;BME280;21134;49.646;8.560;2023-05-08T04:07:57;100797.75;;;14.94;100.00
34931;BME280;21134;49.646;8.560;2023-05-08T04:10:30;100799.47;;;14.94;100.00
34931;BME280;21134;49.646;8.560;2023-05-08T04:13:02;100796.91;;;14.94;100.00
34931;BME280;21134;49.646;8.560;2023-05-08T04:15:35;100804.63;;;14.94;100.00
34931;BME280;21134;49.646;8.560;2023-05-08T04:18:06;100802.09;;;14.91;100.00
34931;BME280;21134;49.646;8.560;2023-05-08T04:20:34;100812.38;;;14.92;100.00
34931;BME280;21134;49.646;8.560;2023-05-08T04:23:01;100805.53;;;14.91;100.00
34931;BME280;21134;49.646;8.560;2023-05-08T04:25:29;100812.38;;;14.92;100.00
34931;BME280;21134;49.646;8.560;2023-05-08T04:27:57;100808.06;;;14.93;100.00
34931;BME280;21134;49.646;8.560;2023-05-08T04:30:26;100819.25;;;14.92;100.00
34931;BME280;21134;49.646;8.560;2023-05-08T04:32:55;100821.03;;;14.88;100.00
34931;BME280;21134;49.646;8.560;2023-05-08T04:35:22;100824.47;;;14.87;100.00
34931;BME280;21134;49.646;8.560;2023-05-08T04:37:49;100816.75;;;14.87;100.00
34931;BME280;21134;49.646;8.560;2023-05-08T04:40:15;100828.75;;;14.88;100.00
34931;BME280;21134;49.646;8.560;2023-05-08T04:42:42;100832.19;;;14.88;100.00
34931;BME280;21134;49.646;8.560;2023-05-08T04:45:11;100827.91;;;14.86;100.00
34931;BME280;21134;49.646;8.560;2023-05-08T04:47:38;100838.22;;;14.86;100.00
34931;BME280;21134;49.646;8.560;2023-05-08T04:50:06;100836.50;;;14.86;100.00
34931;BME280;21134;49.646;8.560;2023-05-08T04:52:33;100842.56;;;14.84;100.00
34931;BME280;21134;49.646;8.560;2023-05-08T04:54:59;100839.09;;;14.83;100.00
34931;BME280;21134;49.646;8.560;2023-05-08T04:57:26;100837.38;;;14.85;100.00
34931;BME280;21134;49.646;8.560;2023-05-08T04:59:52;100841.63;;;14.86;100.00
34931;BME280;21134;49.646;8.560;2023-05-08T05:02:19;100836.44;;;14.89;100.00
34931;BME280;21134;49.646;8.560;2023-05-08T05:04:45;100844.16;;;14.91;100.00
34931;BME280;21134;49.646;8.560;2023-05-08T05:07:13;100849.31;;;14.91;100.00
34931;BME280;21134;49.646;8.560;2023-05-08T05:09:40;100846.75;;;14.91;100.00
34931;BME280;21134;49.646;8.560;2023-05-08T05:12:06;100851.91;;;14.91;100.00
34931;BME280;21134;49.646;8.560;2023-05-08T05:14:33;100860.44;;;14.93;100.00
34931;BME280;21134;49.646;8.560;2023-05-08T05:16:59;100860.44;;;14.93;100.00
34931;BME280;21134;49.646;8.560;2023-05-08T05:19:26;100855.25;;;14.96;100.00
34931;BME280;21134;49.646;8.560;2023-05-08T05:21:52;100856.97;;;14.97;100.00
34931;BME280;21134;49.646;8.560;2023-05-08T05:24:20;100854.38;;;15.00;100.00
34931;BME280;21134;49.646;8.560;2023-05-08T05:26:46;100858.66;;;15.00;100.00
34931;BME280;21134;49.646;8.560;2023-05-08T05:29:13;100862.06;;;15.03;100.00
34931;BME280;21134;49.646;8.560;2023-05-08T05:31:39;100856.88;;;15.05;100.00
34931;BME280;21134;49.646;8.560;2023-05-08T05:34:06;100855.97;;;15.07;100.00
34931;BME280;21134;49.646;8.560;2023-05-08T05:36:33;100854.25;;;15.08;100.00
34931;BME280;21134;49.646;8.560;2023-05-08T05:38:59;100863.66;;;15.10;100.00
34931;BME280;21134;49.646;8.560;2023-05-08T05:41:27;100867.94;;;15.13;100.00
34931;BME280;21134;49.646;8.560;2023-05-08T05:43:53;100867.91;;;15.16;100.00
34931;BME280;21134;49.646;8.560;2023-05-08T05:46:20;100863.53;;;15.18;100.00
34931;BME280;21134;49.646;8.560;2023-05-08T05:48:50;100870.44;;;15.19;100.00
34931;BME280;21134;49.646;8.560;2023-05-08T05:51:17;100869.53;;;15.20;100.00
34931;BME280;21134;49.646;8.560;2023-05-08T05:53:43;100863.50;;;15.21;100.00
34931;BME280;21134;49.646;8.560;2023-05-08T05:56:10;100875.50;;;15.24;100.00
34931;BME280;21134;49.646;8.560;2023-05-08T05:58:37;100867.78;;;15.25;100.00
34931;BME280;21134;49.646;8.560;2023-05-08T06:01:04;100877.97;;;15.31;100.00
34931;BME280;21134;49.646;8.560;2023-05-08T06:03:31;100876.28;;;15.30;100.00
34931;BME280;21134;49.646;8.560;2023-05-08T06:05:57;100874.53;;;15.32;100.00
34931;BME280;21134;49.646;8.560;2023-05-08T06:08:24;100880.50;;;15.36;100.00
34931;BME280;21134;49.646;8.560;2023-05-08T06:10:51;100876.19;;;15.37;100.00
34931;BME280;21134;49.646;8.560;2023-05-08T06:13:17;100881.34;;;15.38;100.00
34931;BME280;21134;49.646;8.560;2023-05-08T06:15:45;100892.41;;;15.45;100.00
34931;BME280;21134;49.646;8.560;2023-05-08T06:18:12;100885.47;;;15.47;100.00
34931;BME280;21134;49.646;8.560;2023-05-08T06:20:38;100881.09;;;15.53;100.00
34931;BME280;21134;49.646;8.560;2023-05-08T06:23:05;100885.41;;;15.53;100.00
34931;BME280;21134;49.646;8.560;2023-05-08T06:25:31;100887.13;;;15.54;100.00
34931;BME280;21134;49.646;8.560;2023-05-08T06:27:58;100891.44;;;15.52;100.00
34931;BME280;21134;49.646;8.560;2023-05-08T06:30:25;100889.63;;;15.58;100.00
34931;BME280;21134;49.646;8.560;2023-05-08T06:32:52;100885.25;;;15.67;100.00
34931;BME280;21134;49.646;8.560;2023-05-08T06:35:19;100889.38;;;15.75;100.00
34931;BME280;21134;49.646;8.560;2023-05-08T06:37:45;100895.38;;;15.77;100.00
34931;BME280;21134;49.646;8.560;2023-05-08T06:40:12;100890.16;;;15.80;100.00
34931;BME280;21134;49.646;8.560;2023-05-08T06:42:39;100889.31;;;15.80;100.00
34931;BME280;21134;49.646;8.560;2023-05-08T06:45:07;100892.69;;;15.84;100.00
34931;BME280;21134;49.646;8.560;2023-05-08T06:47:34;100890.88;;;15.90;100.00
34931;BME280;21134;49.646;8.560;2023-05-08T06:50:02;100894.38;;;15.86;100.00
34931;BME280;21134;49.646;8.560;2023-05-08T06:52:28;100902.13;;;15.85;100.00
34931;BME280;21134;49.646;8.560;2023-05-08T06:54:55;100903.03;;;15.82;100.00
34931;BME280;21134;49.646;8.560;2023-05-08T06:57:21;100899.59;;;15.81;100.00
34931;BME280;21134;49.646;8.560;2023-05-08T06:59:51;100898.78;;;15.79;100.00
34931;BME280;21134;49.646;8.560;2023-05-08T07:02:17;100906.59;;;15.76;100.00
34931;BME280;21134;49.646;8.560;2023-05-08T07:04:44;100906.69;;;15.69;100.00
34931;BME280;21134;49.646;8.560;2023-05-08T07:07:12;100907.53;;;15.66;100.00
34931;BME280;21134;49.646;8.560;2023-05-08T07:09:39;100903.31;;;15.62;100.00
34931;BME280;21134;49.646;8.560;2023-05-08T07:12:06;100915.31;;;15.65;100.00
34931;BME280;21134;49.646;8.560;2023-05-08T07:14:32;100911.09;;;15.59;100.00
34931;BME280;21134;49.646;8.560;2023-05-08T07:17:02;100905.88;;;15.64;100.00
34931;BME280;21134;49.646;8.560;2023-05-08T07:19:31;100916.38;;;15.50;100.00
34931;BME280;21134;49.646;8.560;2023-05-08T07:21:57;100918.13;;;15.51;100.00
34931;BME280;21134;49.646;8.560;2023-05-08T07:24:25;100920.66;;;15.52;100.00
34931;BME280;21134;49.646;8.560;2023-05-08T07:26:52;100918.91;;;15.54;100.00
34931;BME280;21134;49.646;8.560;2023-05-08T07:29:18;100917.91;;;15.65;100.00
34931;BME280;21134;49.646;8.560;2023-05-08T07:31:45;100925.59;;;15.66;100.00
34931;BME280;21134;49.646;8.560;2023-05-08T07:34:12;100923.84;;;15.71;100.00
34931;BME280;21134;49.646;8.560;2023-05-08T07:36:39;100924.69;;;15.72;100.00
34931;BME280;21134;49.646;8.560;2023-05-08T07:39:05;100923.81;;;15.74;100.00
34931;BME280;21134;49.646;8.560;2023-05-08T07:41:33;100916.94;;;15.73;100.00
34931;BME280;21134;49.646;8.560;2023-05-08T07:44:01;100918.63;;;15.74;100.00
34931;BME280;21134;49.646;8.560;2023-05-08T07:46:27;100928.97;;;15.74;100.00
34931;BME280;21134;49.646;8.560;2023-05-08T07:48:54;100916.84;;;15.79;100.00
34931;BME280;21134;49.646;8.560;2023-05-08T07:51:20;100926.28;;;15.80;100.00
34931;BME280;21134;49.646;8.560;2023-05-08T07:53:47;100921.03;;;15.85;100.00
34931;BME280;21134;49.646;8.560;2023-05-08T07:56:15;100915.78;;;15.91;100.00
34931;BME280;21134;49.646;8.560;2023-05-08T07:58:42;100920.00;;;15.97;100.00
34931;BME280;21134;49.646;8.560;2023-05-08T08:01:10;100925.91;;;16.05;100.00
34931;BME280;21134;49.646;8.560;2023-05-08T08:03:37;100930.09;;;16.12;100.00
34931;BME280;21134;49.646;8.560;2023-05-08T08:06:03;100930.94;;;16.11;100.00
34931;BME280;21134;49.646;8.560;2023-05-08T08:08:30;100925.66;;;16.19;100.00
34931;BME280;21134;49.646;8.560;2023-05-08T08:10:56;100922.13;;;16.24;100.00
34931;BME280;21134;49.646;8.560;2023-05-08T08:13:23;100928.94;;;16.27;100.00
34931;BME280;21134;49.646;8.560;2023-05-08T08:15:50;100921.97;;;16.32;100.00
34931;BME280;21134;49.646;8.560;2023-05-08T08:18:17;100931.25;;;16.44;100.00
34931;BME280;21134;49.646;8.560;2023-05-08T08:20:44;100934.53;;;16.54;100.00
34931;BME280;21134;49.646;8.560;2023-05-08T08:23:10;100930.97;;;16.59;98.84
34931;BME280;21134;49.646;8.560;2023-05-08T08:25:36;100924.88;;;16.63;98.12
34931;BME280;21134;49.646;8.560;2023-05-08T08:28:03;100924.88;;;16.63;97.91
34931;BME280;21134;49.646;8.560;2023-05-08T08:30:30;100924.81;;;16.66;97.71
34931;BME280;21134;49.646;8.560;2023-05-08T08:32:57;100928.09;;;16.76;98.01
34931;BME280;21134;49.646;8.560;2023-05-08T08:35:26;100931.47;;;16.78;97.30
34931;BME280;21134;49.646;8.560;2023-05-08T08:37:53;100931.34;;;16.86;96.54
34931;BME280;21134;49.646;8.560;2023-05-08T08:40:20;100929.25;;;17.05;95.53
34931;BME280;21134;49.646;8.560;2023-05-08T08:42:46;100922.13;;;17.14;92.62
34931;BME280;21134;49.646;8.560;2023-05-08T08:45:13;100920.09;;;17.29;93.66
34931;BME280;21134;49.646;8.560;2023-05-08T08:47:43;100928.28;;;17.49;92.73
34931;BME280;21134;49.646;8.560;2023-05-08T08:50:12;100932.16;;;17.67;92.25
34931;BME280;21134;49.646;8.560;2023-05-08T08:52:47;100929.25;;;17.84;91.72
34931;BME280;21134;49.646;8.560;2023-05-08T08:55:19;100925.56;;;17.93;89.95
34931;BME280;21134;49.646;8.560;2023-05-08T08:57:51;100925.63;;;17.89;86.59
34931;BME280;21134;49.646;8.560;2023-05-08T09:00:21;100930.06;;;17.84;85.37
34931;BME280;21134;49.646;8.560;2023-05-08T09:02:48;100927.34;;;17.91;86.69
34931;BME280;21134;49.646;8.560;2023-05-08T09:05:16;100926.31;;;17.98;87.53
34931;BME280;21134;49.646;8.560;2023-05-08T09:07:43;100934.47;;;18.15;83.62
34931;BME280;21134;49.646;8.560;2023-05-08T09:10:10;100937.75;;;18.22;82.58
34931;BME280;21134;49.646;8.560;2023-05-08T09:12:39;100940.09;;;18.32;82.38
34931;BME280;21134;49.646;8.560;2023-05-08T09:15:06;100930.22;;;18.47;81.70
34931;BME280;21134;49.646;8.560;2023-05-08T09:17:33;100934.69;;;18.74;82.07
34931;BME280;21134;49.646;8.560;2023-05-08T09:19:59;100941.91;;;18.94;81.59
34931;BME280;21134;49.646;8.560;2023-05-08T09:22:29;100938.94;;;19.08;81.58
34931;BME280;21134;49.646;8.560;2023-05-08T09:24:56;100944.63;;;19.19;77.35
34931;BME280;21134;49.646;8.560;2023-05-08T09:27:24;100941.06;;;18.94;77.30
34931;BME280;21134;49.646;8.560;2023-05-08T09:29:58;100943.97;;;18.83;78.14
34931;BME280;21134;49.646;8.560;2023-05-08T09:32:26;100940.41;;;18.86;78.87
34931;BME280;21134;49.646;8.560;2023-05-08T09:34:53;100949.59;;;18.97;80.16
34931;BME280;21134;49.646;8.560;2023-05-08T09:37:20;100947.47;;;19.12;78.87
34931;BME280;21134;49.646;8.560;2023-05-08T09:39:47;100952.34;;;19.22;76.47
34931;BME280;21134;49.646;8.560;2023-05-08T09:42:14;100959.53;;;19.13;77.13
34931;BME280;21134;49.646;8.560;2023-05-08T09:44:45;100956.13;;;19.11;77.84
34931;BME280;21134;49.646;8.560;2023-05-08T09:47:13;100959.28;;;18.92;80.97
34931;BME280;21134;49.646;8.560;2023-05-08T09:49:55;100954.41;;;18.80;82.56
34931;BME280;21134;49.646;8.560;2023-05-08T09:52:22;100961.06;;;18.89;83.84
34931;BME280;21134;49.646;8.560;2023-05-08T09:54:55;100961.22;;;18.84;84.44
34931;BME280;21134;49.646;8.560;2023-05-08T09:57:22;100965.50;;;18.85;85.00
34931;BME280;21134;49.646;8.560;2023-05-08T09:59:49;100967.00;;;18.94;83.35
34931;BME280;21134;49.646;8.560;2023-05-08T10:02:16;100958.28;;;18.64;84.18
34931;BME280;21134;49.646;8.560;2023-05-08T10:04:44;100966.00;;;18.67;83.75
34931;BME280;21134;49.646;8.560;2023-05-08T10:07:10;100966.25;;;18.56;85.75
34931;BME280;21134;49.646;8.560;2023-05-08T10:09:37;100971.41;;;18.57;84.77
34931;BME280;21134;49.646;8.560;2023-05-08T10:12:05;100968.06;;;18.54;86.04
34931;BME280;21134;49.646;8.560;2023-05-08T10:14:33;100971.19;;;18.65;84.56
34931;BME280;21134;49.646;8.560;2023-05-08T10:17:06;100972.72;;;18.74;84.22
34931;BME280;21134;49.646;8.560;2023-05-08T10:19:37;100968.75;;;18.92;81.95
34931;BME280;21134;49.646;8.560;2023-05-08T10:22:10;100963.66;;;18.89;82.60
34931;BME280;21134;49.646;8.560;2023-05-08T10:24:40;100968.56;;;18.99;82.55
34931;BME280;21134;49.646;8.560;2023-05-08T10:27:13;100972.66;;;19.08;82.44
34931;BME280;21134;49.646;8.560;2023-05-08T10:29:47;100968.06;;;19.18;82.08
34931;BME280;21134;49.646;8.560;2023-05-08T10:32:18;100971.03;;;19.34;80.36
34931;BME280;21134;49.646;8.560;2023-05-08T10:34:48;100970.28;;;19.58;78.42
34931;BME280;21134;49.646;8.560;2023-05-08T10:37:17;100969.47;;;19.86;78.02
34931;BME280;21134;49.646;8.560;2023-05-08T10:39:44;100968.38;;;19.93;76.87
34931;BME280;21134;49.646;8.560;2023-05-08T10:42:13;100962.31;;;19.92;77.04
34931;BME280;21134;49.646;8.560;2023-05-08T10:44:39;100963.44;;;20.12;77.00
34931;BME280;21134;49.646;8.560;2023-05-08T10:47:10;100964.47;;;20.06;75.99
34931;BME280;21134;49.646;8.560;2023-05-08T10:49:47;100963.16;;;20.19;75.85
34931;BME280;21134;49.646;8.560;2023-05-08T10:52:17;100955.13;;;20.27;75.84
34931;BME280;21134;49.646;8.560;2023-05-08T10:55:13;100956.25;;;20.20;74.47
34931;BME280;21134;49.646;8.560;2023-05-08T10:58:00;100950.25;;;20.16;74.50
34931;BME280;21134;49.646;8.560;2023-05-08T11:00:31;100948.88;;;20.33;74.36
34931;BME280;21134;49.646;8.560;2023-05-08T11:03:04;100945.72;;;20.48;73.68
34931;BME280;21134;49.646;8.560;2023-05-08T11:05:44;100945.13;;;20.66;72.77
34931;BME280;21134;49.646;8.560;2023-05-08T11:08:13;100944.41;;;21.10;71.65
34931;BME280;21134;49.646;8.560;2023-05-08T11:10:41;100940.59;;;21.42;69.29
34931;BME280;21134;49.646;8.560;2023-05-08T11:13:11;100941.78;;;21.57;68.26
34931;BME280;21134;49.646;8.560;2023-05-08T11:15:39;100936.00;;;21.49;68.02
34931;BME280;21134;49.646;8.560;2023-05-08T11:18:07;100933.63;;;21.43;68.19
34931;BME280;21134;49.646;8.560;2023-05-08T11:20:37;100934.31;;;21.24;71.67
34931;BME280;21134;49.646;8.560;2023-05-08T11:23:22;100929.72;;;21.31;71.76
34931;BME280;21134;49.646;8.560;2023-05-08T11:25:59;100932.44;;;21.28;70.66
34931;BME280;21134;49.646;8.560;2023-05-08T11:28:30;100935.59;;;20.90;71.08
34931;BME280;21134;49.646;8.560;2023-05-08T11:31:01;100932.66;;;20.51;73.19
34931;BME280;21134;49.646;8.560;2023-05-08T11:33:29;100927.22;;;20.32;74.00
34931;BME280;21134;49.646;8.560;2023-05-08T11:35:56;100926.84;;;20.18;74.16
34931;BME280;21134;49.646;8.560;2023-05-08T11:38:26;100923.44;;;20.16;75.27
34931;BME280;21134;49.646;8.560;2023-05-08T11:40:55;100926.03;;;20.16;76.00
34931;BME280;21134;49.646;8.560;2023-05-08T11:43:57;100921.13;;;20.33;75.64
34931;BME280;21134;49.646;8.560;2023-05-08T11:46:37;100917.94;;;20.25;74.25
34931;BME280;21134;49.646;8.560;2023-05-08T11:49:03;100928.59;;;20.17;74.12
34931;BME280;21134;49.646;8.560;2023-05-08T11:51:31;100927.00;;;20.13;75.49
34931;BME280;21134;49.646;8.560;2023-05-08T11:53:58;100919.09;;;19.91;76.28
34931;BME280;21134;49.646;8.560;2023-05-08T11:56:25;100928.63;;;19.63;77.16
34931;BME280;21134;49.646;8.560;2023-05-08T11:59:02;100931.06;;;19.39;78.56
34931;BME280;21134;49.646;8.560;2023-05-08T12:01:29;100927.06;;;19.29;79.40
34931;BME280;21134;49.646;8.560;2023-05-08T12:04:00;100931.03;;;19.11;81.65
34931;BME280;21134;49.646;8.560;2023-05-08T12:06:27;100934.19;;;18.93;82.66
34931;BME280;21134;49.646;8.560;2023-05-08T12:08:54;100933.69;;;18.78;82.92
34931;BME280;21134;49.646;8.560;2023-05-08T12:11:23;100936.50;;;18.69;84.17
34931;BME280;21134;49.646;8.560;2023-05-08T12:13:50;100929.22;;;18.52;85.91
34931;BME280;21134;49.646;8.560;2023-05-08T12:16:18;100927.00;;;18.39;86.46
34931;BME280;21134;49.646;8.560;2023-05-08T12:18:48;100928.91;;;18.30;86.56
34931;BME280;21134;49.646;8.560;2023-05-08T12:21:15;100936.16;;;18.18;85.90
34931;BME280;21134;49.646;8.560;2023-05-08T12:23:41;100940.00;;;18.03;87.48
34931;BME280;21134;49.646;8.560;2023-05-08T12:26:08;100938.63;;;17.88;88.77
34931;BME280;21134;49.646;8.560;2023-05-08T12:28:37;100936.03;;;17.88;89.22
34931;BME280;21134;49.646;8.560;2023-05-08T12:31:03;100934.34;;;17.87;90.53
34931;BME280;21134;49.646;8.560;2023-05-08T12:33:31;100937.88;;;17.83;89.78
34931;BME280;21134;49.646;8.560;2023-05-08T12:35:59;100941.38;;;17.80;89.56
34931;BME280;21134;49.646;8.560;2023-05-08T12:38:26;100938.84;;;17.79;90.08
34931;BME280;21134;49.646;8.560;2023-05-08T12:40:53;100943.88;;;17.83;90.39
34931;BME280;21134;49.646;8.560;2023-05-08T12:43:22;100937.94;;;17.80;90.54
34931;BME280;21134;49.646;8.560;2023-05-08T12:45:55;100941.28;;;17.85;90.72
34931;BME280;21134;49.646;8.560;2023-05-08T12:48:22;100949.81;;;17.88;91.38
34931;BME280;21134;49.646;8.560;2023-05-08T12:50:50;100940.38;;;17.87;91.21
34931;BME280;21134;49.646;8.560;2023-05-08T12:53:18;100935.97;;;17.89;90.25
34931;BME280;21134;49.646;8.560;2023-05-08T12:55:50;100934.97;;;17.97;87.54